createdAt,value
2018-05-08T00:00:14.188Z,17.20
2018-05-08T00:02:42.488Z,17.10
2018-05-08T00:05:10.774Z,17.00
2018-05-08T00:07:39.102Z,17.00
2018-05-08T00:10:07.430Z,17.00
2018-05-08T00:12:35.734Z,17.00
2018-05-08T00:15:04.067Z,17.00
2018-05-08T00:17:32.339Z,17.00
2018-05-08T00:20:00.638Z,16.90
2018-05-08T00:22:28.962Z,16.80
2018-05-08T00:24:56.518Z,16.80
2018-05-08T00:27:24.781Z,16.70
2018-05-08T00:29:53.073Z,16.60
2018-05-08T00:32:21.326Z,16.50
2018-05-08T00:34:49.617Z,16.50
2018-05-08T00:37:17.870Z,16.50
2018-05-08T00:39:45.407Z,16.50
2018-05-08T00:42:13.658Z,16.40
2018-05-08T00:44:41.998Z,16.40
2018-05-08T00:47:10.277Z,16.40
2018-05-08T00:49:38.599Z,16.30
2018-05-08T00:52:06.858Z,16.30
2018-05-08T00:54:43.481Z,16.30
2018-05-08T00:57:11.778Z,16.00
2018-05-08T00:59:40.078Z,16.00
2018-05-08T01:02:08.375Z,15.90
2018-05-08T01:04:36.635Z,15.80
2018-05-08T01:07:04.946Z,15.80
2018-05-08T01:09:33.254Z,15.90
2018-05-08T01:12:01.554Z,15.80
2018-05-08T01:14:29.890Z,15.70
2018-05-08T01:16:58.146Z,15.80
2018-05-08T01:19:26.524Z,15.70
2018-05-08T01:21:54.792Z,15.60
2018-05-08T01:24:23.090Z,15.50
2018-05-08T01:26:51.378Z,15.30
2018-05-08T01:29:19.689Z,15.40
2018-05-08T01:31:47.963Z,15.40
2018-05-08T01:34:16.266Z,15.30
2018-05-08T01:36:44.550Z,15.30
2018-05-08T01:39:12.823Z,15.40
2018-05-08T01:41:41.143Z,15.40
2018-05-08T01:44:09.497Z,15.50
2018-05-08T01:46:37.738Z,15.40
2018-05-08T01:49:06.013Z,15.50
2018-05-08T01:51:34.352Z,15.40
2018-05-08T01:54:02.682Z,15.40
2018-05-08T01:56:30.975Z,15.40
2018-05-08T01:58:59.244Z,15.30
2018-05-08T02:01:27.586Z,15.30
2018-05-08T02:03:55.836Z,15.30
2018-05-08T02:06:24.121Z,15.20
2018-05-08T02:08:52.413Z,15.20
2018-05-08T02:11:20.677Z,15.20
2018-05-08T02:13:48.967Z,15.10
2018-05-08T02:16:17.266Z,15.10
2018-05-08T02:18:45.521Z,15.00
2018-05-08T02:21:13.766Z,15.10
2018-05-08T02:23:42.123Z,15.00
2018-05-08T02:26:10.397Z,15.00
2018-05-08T02:28:38.778Z,15.00
2018-05-08T02:31:07.091Z,15.00
2018-05-08T02:33:35.353Z,14.90
2018-05-08T02:36:03.641Z,14.70
2018-05-08T02:38:31.938Z,14.70
2018-05-08T02:41:00.211Z,14.70
2018-05-08T02:43:28.454Z,14.70
2018-05-08T02:45:56.726Z,14.60
2018-05-08T02:48:24.970Z,14.60
2018-05-08T02:50:53.270Z,14.60
2018-05-08T02:53:21.618Z,14.60
2018-05-08T02:55:49.906Z,14.60
2018-05-08T02:58:18.148Z,14.60
2018-05-08T03:00:46.439Z,14.60
2018-05-08T03:03:14.691Z,14.60
2018-05-08T03:05:42.991Z,14.60
2018-05-08T03:08:11.300Z,14.40
2018-05-08T03:10:39.599Z,14.40
2018-05-08T03:13:07.890Z,14.40
2018-05-08T03:15:36.158Z,14.30
2018-05-08T03:18:04.440Z,14.20
2018-05-08T03:20:32.695Z,14.00
2018-05-08T03:23:01.013Z,14.00
2018-05-08T03:25:29.290Z,14.00
2018-05-08T03:27:57.576Z,14.00
2018-05-08T03:30:25.831Z,14.00
2018-05-08T03:32:54.122Z,14.00
2018-05-08T03:35:22.361Z,14.10
2018-05-08T03:37:50.650Z,14.00
2018-05-08T03:40:19.214Z,14.00
2018-05-08T03:42:47.492Z,13.90
2018-05-08T03:45:15.770Z,14.00
2018-05-08T03:47:44.059Z,14.00
2018-05-08T03:50:12.305Z,14.10
2018-05-08T03:52:40.597Z,14.10
2018-05-08T03:55:09.190Z,14.00
2018-05-08T03:57:37.480Z,14.00
2018-05-08T04:00:05.851Z,14.00
2018-05-08T04:04:50.407Z,13.90
2018-05-08T04:08:21.889Z,14.00
2018-05-08T04:10:50.191Z,14.00
2018-05-08T04:13:18.480Z,13.80
2018-05-08T04:15:46.762Z,13.80
2018-05-08T04:18:15.067Z,13.90
2018-05-08T04:20:43.362Z,13.80
2018-05-08T04:23:11.642Z,13.60
2018-05-08T04:25:39.887Z,13.50
2018-05-08T04:28:08.185Z,13.60
2018-05-08T04:30:36.474Z,13.70
2018-05-08T04:33:04.842Z,13.80
2018-05-08T04:35:33.131Z,13.80
2018-05-08T04:38:01.483Z,13.90
2018-05-08T04:40:29.750Z,13.90
2018-05-08T04:42:58.013Z,13.80
2018-05-08T04:45:26.294Z,13.80
2018-05-08T04:47:54.573Z,13.80
2018-05-08T04:50:22.879Z,13.80
2018-05-08T04:52:51.142Z,13.80
2018-05-08T04:55:19.524Z,13.80
2018-05-08T04:57:47.813Z,14.00
2018-05-08T05:00:16.128Z,14.10
2018-05-08T05:02:44.436Z,14.00
2018-05-08T05:05:12.733Z,14.00
2018-05-08T05:07:41.031Z,14.00
2018-05-08T05:10:09.342Z,14.10
2018-05-08T05:12:37.614Z,14.20
2018-05-08T05:15:05.934Z,14.30
2018-05-08T05:17:34.202Z,14.40
2018-05-08T05:20:02.514Z,14.40
2018-05-08T05:22:30.815Z,14.40
2018-05-08T05:24:59.124Z,14.40
2018-05-08T05:27:27.370Z,14.60
2018-05-08T05:29:55.629Z,14.50
2018-05-08T05:32:23.931Z,14.60
2018-05-08T05:34:52.188Z,14.60
2018-05-08T05:37:20.518Z,14.70
2018-05-08T05:39:48.771Z,14.90
2018-05-08T05:42:17.030Z,15.00
2018-05-08T05:44:44.553Z,15.00
2018-05-08T05:47:12.830Z,15.10
2018-05-08T05:49:41.095Z,15.20
2018-05-08T05:52:09.382Z,15.30
2018-05-08T05:54:37.717Z,15.30
2018-05-08T05:57:05.298Z,15.30
2018-05-08T05:59:33.594Z,15.50
2018-05-08T06:02:01.857Z,15.60
2018-05-08T06:04:30.150Z,15.60
2018-05-08T06:06:58.441Z,15.70
2018-05-08T06:09:26.770Z,15.70
2018-05-08T06:11:55.122Z,15.80
2018-05-08T06:14:23.382Z,15.80
2018-05-08T06:16:51.742Z,15.80
2018-05-08T06:19:20.046Z,15.80
2018-05-08T06:21:48.296Z,15.90
2018-05-08T06:24:16.586Z,15.90
2018-05-08T06:26:44.898Z,16.10
2018-05-08T06:29:13.230Z,16.10
2018-05-08T06:31:41.534Z,16.20
2018-05-08T06:34:09.858Z,16.30
2018-05-08T06:36:38.182Z,16.40
2018-05-08T06:39:06.512Z,16.50
2018-05-08T06:41:34.822Z,16.60
2018-05-08T06:44:03.148Z,16.60
2018-05-08T06:46:31.438Z,16.70
2018-05-08T06:48:59.767Z,16.70
2018-05-08T06:51:28.072Z,16.90
2018-05-08T06:53:56.358Z,16.90
2018-05-08T06:56:24.650Z,17.10
2018-05-08T06:58:52.955Z,17.20
2018-05-08T07:01:21.283Z,17.30
2018-05-08T07:03:49.606Z,17.40
2018-05-08T07:06:17.910Z,17.50
2018-05-08T07:08:46.214Z,17.60
2018-05-08T07:11:14.510Z,17.70
2018-05-08T07:13:42.839Z,17.90
2018-05-08T07:16:11.266Z,18.00
2018-05-08T07:18:39.470Z,18.10
2018-05-08T07:21:07.790Z,18.10
2018-05-08T07:23:36.077Z,18.20
2018-05-08T07:26:04.375Z,18.30
2018-05-08T07:28:32.650Z,18.40
2018-05-08T07:31:00.922Z,18.50
2018-05-08T07:33:29.262Z,18.60
2018-05-08T07:35:57.589Z,18.70
2018-05-08T07:38:25.910Z,18.80
2018-05-08T07:40:54.210Z,18.90
2018-05-08T07:43:22.518Z,18.90
2018-05-08T07:45:50.785Z,19.00
2018-05-08T07:48:19.136Z,19.10
2018-05-08T07:50:48.004Z,19.20
2018-05-08T07:53:16.259Z,19.30
2018-05-08T07:55:44.566Z,19.40
2018-05-08T07:58:12.873Z,19.50
2018-05-08T08:00:41.197Z,19.50
2018-05-08T08:03:09.492Z,19.60
2018-05-08T08:05:37.826Z,19.70
2018-05-08T08:08:06.134Z,19.80
2018-05-08T08:10:34.454Z,19.90
2018-05-08T08:13:02.791Z,20.00
2018-05-08T08:15:31.102Z,20.20
2018-05-08T08:17:59.398Z,20.30
2018-05-08T08:20:27.729Z,20.30
2018-05-08T08:22:56.008Z,20.40
2018-05-08T08:25:24.372Z,20.50
2018-05-08T08:27:52.714Z,20.60
2018-05-08T08:30:20.990Z,20.70
2018-05-08T08:32:49.355Z,20.90
2018-05-08T08:35:17.654Z,21.00
2018-05-08T08:37:45.978Z,21.10
2018-05-08T08:40:14.375Z,21.10
2018-05-08T08:42:42.713Z,21.20
2018-05-08T08:45:11.031Z,21.30
2018-05-08T08:47:39.393Z,21.40
2018-05-08T08:50:07.711Z,21.60
2018-05-08T08:52:36.041Z,21.60
2018-05-08T08:55:04.346Z,21.70
2018-05-08T08:57:32.689Z,21.80
2018-05-08T09:00:01.031Z,22.00
2018-05-08T09:02:29.283Z,22.10
2018-05-08T09:04:57.590Z,22.30
2018-05-08T09:07:25.940Z,22.50
2018-05-08T09:09:54.264Z,22.60
2018-05-08T09:12:22.594Z,22.70
2018-05-08T09:14:51.013Z,22.80
2018-05-08T09:17:19.349Z,22.90
2018-05-08T09:19:47.738Z,23.00
2018-05-08T09:22:15.999Z,23.10
2018-05-08T09:24:44.315Z,23.40
2018-05-08T09:27:12.622Z,23.60
2018-05-08T09:29:40.930Z,23.60
2018-05-08T09:32:09.218Z,23.80
2018-05-08T09:34:37.537Z,24.00
2018-05-08T09:37:05.848Z,24.20
2018-05-08T09:39:34.195Z,24.30
2018-05-08T09:42:02.524Z,24.40
2018-05-08T09:44:30.849Z,24.50
2018-05-08T09:46:59.143Z,24.60
2018-05-08T09:49:27.434Z,24.60
2018-05-08T09:51:55.711Z,24.70
2018-05-08T09:54:24.039Z,24.80
2018-05-08T09:56:52.327Z,24.90
2018-05-08T09:59:20.705Z,25.00
2018-05-08T10:01:49.022Z,25.10
2018-05-08T10:04:17.354Z,25.10
2018-05-08T10:06:45.773Z,25.20
2018-05-08T10:09:14.025Z,25.20
2018-05-08T10:11:42.360Z,25.10
2018-05-08T10:14:10.696Z,25.10
2018-05-08T10:16:39.079Z,25.10
2018-05-08T10:19:07.450Z,25.00
2018-05-08T10:21:35.827Z,25.00
2018-05-08T10:24:04.114Z,24.90
2018-05-08T10:26:32.430Z,24.90
2018-05-08T10:29:00.837Z,24.80
2018-05-08T10:31:29.194Z,24.80
2018-05-08T10:33:57.490Z,24.90
2018-05-08T10:36:25.851Z,25.00
2018-05-08T10:38:54.142Z,25.00
2018-05-08T10:41:22.420Z,25.00
2018-05-08T10:43:50.729Z,25.10
2018-05-08T10:46:19.052Z,25.20
2018-05-08T10:48:47.408Z,25.30
2018-05-08T10:51:15.690Z,25.40
2018-05-08T10:53:43.988Z,25.40
2018-05-08T10:56:12.289Z,25.50
2018-05-08T10:58:40.597Z,25.70
2018-05-08T11:01:08.915Z,25.90
2018-05-08T11:03:37.290Z,26.00
2018-05-08T11:06:05.598Z,26.20
2018-05-08T11:08:34.013Z,26.30
2018-05-08T11:11:02.326Z,26.40
2018-05-08T11:13:30.671Z,26.50
2018-05-08T11:15:59.037Z,26.50
2018-05-08T11:18:27.338Z,26.60
2018-05-08T11:20:55.717Z,26.70
2018-05-08T11:23:23.992Z,26.80
2018-05-08T11:25:52.375Z,26.90
2018-05-08T11:28:20.683Z,27.10
2018-05-08T11:30:49.057Z,27.20
2018-05-08T11:33:17.729Z,27.40
2018-05-08T11:35:46.062Z,27.60
2018-05-08T11:38:14.507Z,27.50
2018-05-08T11:40:42.852Z,27.50
2018-05-08T11:43:11.164Z,27.70
2018-05-08T11:45:39.490Z,27.70
2018-05-08T11:48:07.866Z,27.80
2018-05-08T11:50:36.205Z,27.90
2018-05-08T11:53:04.546Z,28.00
2018-05-08T11:55:32.865Z,28.20
2018-05-08T11:58:01.167Z,28.30
2018-05-08T12:00:29.454Z,28.30
2018-05-08T12:02:57.795Z,28.30
2018-05-08T12:05:26.111Z,28.50
2018-05-08T12:07:54.498Z,28.50
2018-05-08T12:10:22.790Z,28.60
2018-05-08T12:12:51.166Z,28.80
2018-05-08T12:15:19.521Z,28.80
2018-05-08T12:17:47.899Z,28.90
2018-05-08T12:20:16.234Z,29.00
2018-05-08T12:22:44.494Z,29.10
2018-05-08T12:25:12.821Z,29.20
2018-05-08T12:27:41.090Z,29.10
2018-05-08T12:30:09.387Z,29.20
2018-05-08T12:32:37.755Z,29.40
2018-05-08T12:35:06.107Z,29.50
2018-05-08T12:37:34.671Z,29.60
2018-05-08T12:40:03.087Z,29.60
2018-05-08T12:42:31.376Z,29.40
2018-05-08T12:44:59.778Z,29.30
2018-05-08T12:47:28.269Z,29.30
2018-05-08T12:49:56.862Z,29.20
2018-05-08T12:52:25.207Z,29.00
2018-05-08T12:54:53.806Z,29.20
2018-05-08T12:57:22.170Z,29.40
2018-05-08T12:59:50.549Z,29.50
2018-05-08T13:02:19.336Z,29.60
2018-05-08T13:04:47.647Z,29.80
2018-05-08T13:07:16.016Z,29.80
2018-05-08T13:09:44.323Z,29.90
2018-05-08T13:12:12.612Z,29.90
2018-05-08T13:14:41.164Z,30.00
2018-05-08T13:17:09.707Z,30.00
2018-05-08T13:19:39.176Z,30.00
2018-05-08T13:22:07.539Z,30.00
2018-05-08T13:24:35.880Z,30.10
2018-05-08T13:27:04.235Z,30.00
2018-05-08T13:29:32.626Z,30.10
2018-05-08T13:32:00.946Z,30.10
2018-05-08T13:34:29.299Z,30.10
2018-05-08T13:36:57.975Z,30.30
2018-05-08T13:39:26.783Z,30.50
2018-05-08T13:41:55.155Z,30.50
2018-05-08T13:44:23.627Z,30.60
2018-05-08T13:46:51.936Z,30.60
2018-05-08T13:49:20.310Z,30.80
2018-05-08T13:51:48.613Z,30.80
2018-05-08T13:54:17.215Z,30.80
2018-05-08T13:56:45.686Z,30.80
2018-05-08T13:59:14.212Z,30.90
2018-05-08T14:01:42.650Z,30.90
2018-05-08T14:04:11.805Z,30.70
2018-05-08T14:06:40.216Z,30.50
2018-05-08T14:09:08.721Z,30.60
2018-05-08T14:11:37.694Z,30.60
2018-05-08T14:14:06.226Z,30.60
2018-05-08T14:16:35.927Z,30.50
2018-05-08T14:19:04.875Z,30.60
2018-05-08T14:21:33.290Z,30.70
2018-05-08T14:24:02.414Z,30.80
2018-05-08T14:26:31.901Z,30.90
2018-05-08T14:29:01.363Z,30.80
2018-05-08T14:31:30.075Z,30.70
2018-05-08T14:33:58.302Z,30.70
2018-05-08T14:36:28.087Z,30.70
2018-05-08T14:38:57.090Z,30.60
2018-05-08T14:41:25.811Z,30.70
2018-05-08T14:43:55.076Z,30.70
2018-05-08T14:46:25.355Z,30.70
2018-05-08T14:48:53.178Z,30.70
2018-05-08T14:51:21.499Z,30.80
2018-05-08T14:53:49.913Z,30.80
2018-05-08T14:56:18.235Z,31.00
2018-05-08T14:58:46.244Z,31.00
2018-05-08T15:01:14.590Z,31.00
2018-05-08T15:06:54.953Z,30.80
2018-05-08T15:15:27.765Z,30.60
2018-05-08T16:40:16.118Z,29.40
2018-05-08T16:45:51.318Z,29.30
2018-05-08T16:48:23.404Z,29.30
2018-05-08T16:50:54.793Z,29.30
2018-05-08T16:53:25.645Z,29.10
2018-05-08T16:55:59.887Z,29.10
2018-05-08T16:58:38.202Z,29.00
2018-05-08T17:01:10.568Z,28.90
2018-05-08T17:18:57.414Z,28.10
2018-05-08T17:21:34.395Z,27.90
2018-05-08T17:24:05.884Z,27.60
2018-05-08T17:29:50.949Z,27.10
2018-05-08T17:32:21.932Z,27.10
2018-05-08T17:34:54.371Z,26.90
2018-05-08T17:37:30.532Z,26.70
2018-05-08T17:40:01.163Z,26.60
2018-05-08T17:45:37.755Z,26.40
2018-05-08T17:48:07.023Z,26.50
2018-05-08T17:50:35.551Z,26.40
2018-05-08T17:53:03.937Z,26.30
2018-05-08T17:55:32.307Z,26.30
2018-05-08T17:58:00.643Z,26.20
2018-05-08T18:00:28.271Z,26.20
2018-05-08T18:02:56.551Z,26.10
2018-05-08T18:05:24.890Z,26.20
2018-05-08T18:07:54.824Z,26.00
2018-05-08T18:10:23.171Z,25.90
2018-05-08T18:12:51.489Z,25.80
2018-05-08T20:57:13.434Z,21.50
2018-05-08T20:59:42.278Z,21.40
2018-05-08T21:02:11.644Z,21.40
2018-05-08T21:04:40.415Z,21.30
2018-05-08T21:07:09.035Z,21.20
2018-05-08T21:09:37.700Z,21.10
2018-05-08T21:12:07.475Z,21.00
2018-05-08T21:14:36.238Z,21.00
2018-05-08T21:17:05.876Z,20.90
2018-05-08T21:19:35.011Z,20.90
2018-05-08T21:22:03.871Z,20.80
2018-05-08T21:24:32.607Z,20.80
2018-05-08T21:27:01.260Z,20.70
2018-05-08T21:29:33.751Z,20.70
2018-05-08T21:32:02.947Z,20.60
2018-05-08T21:34:31.780Z,20.50
2018-05-08T21:37:00.815Z,20.40
2018-05-08T21:39:29.779Z,20.40
2018-05-08T21:41:58.690Z,20.40
2018-05-08T21:44:27.655Z,20.40
2018-05-08T21:46:56.737Z,20.40
2018-05-08T21:49:25.734Z,20.30
2018-05-08T21:51:54.490Z,20.30
2018-05-08T21:54:23.321Z,20.10
2018-05-08T21:56:52.537Z,20.00
2018-05-08T21:59:21.507Z,20.00
2018-05-08T22:01:50.435Z,20.00
2018-05-08T22:04:19.396Z,19.90
2018-05-08T22:06:48.423Z,19.90
2018-05-08T22:09:17.219Z,19.80
2018-05-08T22:11:46.610Z,19.80
2018-05-08T22:14:16.194Z,19.60
2018-05-08T22:16:46.268Z,19.40
2018-05-08T22:19:15.284Z,19.30
2018-05-08T22:21:44.457Z,19.40
2018-05-08T22:24:13.482Z,19.40
2018-05-08T22:26:42.596Z,19.50
2018-05-08T22:29:12.011Z,19.50
2018-05-08T22:31:40.467Z,19.40
2018-05-08T22:34:09.548Z,19.40
2018-05-08T22:36:40.401Z,19.20
2018-05-08T22:39:09.383Z,18.80
2018-05-08T22:41:39.105Z,18.50
2018-05-08T22:44:08.879Z,18.50
2018-05-08T22:46:37.912Z,18.50
2018-05-08T22:49:06.547Z,18.60
2018-05-08T22:51:36.567Z,18.70
2018-05-08T22:54:06.351Z,18.60
2018-05-08T22:56:35.566Z,18.70
2018-05-08T22:59:04.147Z,18.80
2018-05-08T23:01:32.780Z,18.80
2018-05-08T23:04:01.917Z,18.90
2018-05-08T23:06:31.588Z,18.90
2018-05-08T23:09:00.222Z,18.90
2018-05-08T23:11:30.293Z,18.90
2018-05-08T23:13:58.978Z,18.90
2018-05-08T23:16:29.680Z,18.80
2018-05-08T23:18:59.224Z,18.80
2018-05-08T23:21:29.190Z,18.80
2018-05-08T23:23:58.608Z,18.80
2018-05-08T23:26:27.764Z,18.70
2018-05-08T23:28:56.526Z,18.60
2018-05-08T23:31:25.214Z,18.60
2018-05-08T23:33:53.856Z,18.60
2018-05-08T23:36:22.666Z,18.60
2018-05-08T23:38:51.168Z,18.60
2018-05-08T23:41:20.074Z,18.50
2018-05-08T23:43:48.723Z,18.40
2018-05-08T23:46:17.099Z,18.40
2018-05-08T23:48:45.487Z,18.50
2018-05-08T23:51:13.819Z,18.50
2018-05-08T23:53:42.415Z,18.40
2018-05-08T23:56:10.722Z,18.40
2018-05-08T23:58:39.166Z,18.40
